ADDS METAR Data INFO
IDs: Format: Raw Decoded Include TAF

Data at: 1503 UTC 21 Feb 2018

KIZA 211435Z AUTO 04003KT 10SM CLR M01/M03 A3016 RMK AO2
KIZA 211415Z AUTO 05004KT 10SM CLR M01/M03 A3016 RMK AO2
KIZA 211355Z AUTO 03004KT 10SM CLR M01/M03 A3015 RMK AO2
KIZA 211335Z AUTO 02005KT 10SM CLR M02/M03 A3015 RMK AO2
KIZA 211315Z AUTO 06003KT 10SM CLR M01/M02 A3014 RMK AO2
KIZA 211255Z AUTO 11003KT 10SM CLR M01/M02 A3014 RMK AO2
KIZA 201515Z AUTO 27003KT 10SM CLR M02/M05 A3018 RMK AO2
KIZA 201455Z AUTO 00000KT 10SM CLR M03/M06 A3017 RMK AO2
KIZA 201435Z AUTO 00000KT 10SM CLR M03/M06 A3016 RMK AO2
KIZA 201415Z AUTO 00000KT 10SM CLR M02/M06 A3016 RMK AO2
KIZA 201355Z AUTO 00000KT 10SM CLR 00/M04 A3016 RMK AO2
KIZA 201335Z AUTO 00000KT 10SM CLR M01/M04 A3016 RMK AO2
KIZA 201315Z AUTO 27004KT 10SM CLR M01/M04 A3015 RMK AO2
KIZA 201255Z AUTO 27003KT 10SM CLR M01/M04 A3015 RMK AO2
KIZA 201235Z AUTO 00000KT 10SM CLR 00/M04 A3014 RMK AO2
KIZA 201215Z AUTO 00000KT 10SM CLR M01/M04 A3013 RMK AO2
KIZA 201155Z AUTO 00000KT 10SM CLR M02/M05 A3012 RMK AO2
KIZA 201135Z AUTO 32003KT 10SM CLR M01/M04 A3012 RMK AO2
KIZA 201115Z AUTO 00000KT 10SM CLR M01/M03 A3012 RMK AO2
KIZA 201055Z AUTO 32003KT 10SM CLR 00/M03 A3012 RMK AO2
KIZA 201035Z AUTO 31004KT 10SM CLR 01/M02 A3011 RMK AO2
KIZA 201015Z AUTO 00000KT 10SM CLR 02/M02 A3011 RMK AO2
KIZA 200955Z AUTO 00000KT 10SM CLR 02/M02 A3011 RMK AO2
KIZA 200935Z AUTO 00000KT 10SM CLR 01/M02 A3011 RMK AO2
KIZA 200915Z AUTO 00000KT 10SM CLR 02/M02 A3011 RMK AO2
KIZA 200855Z AUTO 00000KT 10SM SCT065 03/M01 A3011 RMK AO2
KIZA 200835Z AUTO 00000KT 10SM CLR 02/M01 A3011 RMK AO2
KIZA 200815Z AUTO 00000KT 10SM CLR 02/M01 A3010 RMK AO2
KIZA 200755Z AUTO 00000KT 10SM CLR 03/M01 A3010 RMK AO2
KIZA 200735Z AUTO 32005KT 10SM CLR 04/M01 A3010 RMK AO2
KIZA 200715Z AUTO 32007KT 10SM CLR 04/00 A3010 RMK AO2
KIZA 200655Z AUTO 33008KT 10SM CLR 05/00 A3008 RMK AO2
KIZA 200635Z AUTO 32008KT 10SM CLR 05/00 A3007 RMK AO2
KIZA 200615Z AUTO 32008KT 10SM CLR 05/00 A3007 RMK AO2
KIZA 200555Z AUTO 32006KT 10SM CLR 05/00 A3006 RMK AO2
KIZA 200535Z AUTO 32007KT 10SM CLR 05/00 A3005 RMK AO2
KIZA 200515Z AUTO 33006KT 10SM CLR 05/00 A3005 RMK AO2
KIZA 200455Z AUTO 32009KT 10SM CLR 06/00 A3003 RMK AO2
KIZA 200435Z AUTO 32009KT 10SM CLR 06/00 A3003 RMK AO2
KIZA 200415Z AUTO 32009KT 10SM CLR 06/00 A3002 RMK AO2
KIZA 200355Z AUTO 32008KT 10SM CLR 06/00 A3002 RMK AO2
KIZA 200335Z AUTO 32009G15KT 10SM CLR 07/00 A3001 RMK AO2
KIZA 200315Z AUTO 31008KT 10SM CLR 07/00 A3000 RMK AO2